createdAt,value
2022-12-26T00:04:51.149Z,5.23
2022-12-26T00:09:46.839Z,5.14
2022-12-26T00:14:40.720Z,5.05
2022-12-26T00:19:33.972Z,4.61
2022-12-26T00:24:27.191Z,4.82
2022-12-26T00:29:23.805Z,4.32
2022-12-26T00:34:18.581Z,4.20
2022-12-26T00:39:12.146Z,3.70
2022-12-26T00:44:05.491Z,3.80
2022-12-26T00:49:00.312Z,3.40
2022-12-26T00:53:53.519Z,3.22
2022-12-26T00:58:46.887Z,3.20
2022-12-26T01:03:41.082Z,3.23
2022-12-26T01:08:36.112Z,2.98
2022-12-26T01:13:29.296Z,3.24
2022-12-26T01:18:23.086Z,2.99
2022-12-26T01:23:16.644Z,3.16
2022-12-26T01:28:11.178Z,3.07
2022-12-26T01:33:04.360Z,2.76
2022-12-26T01:37:58.813Z,2.74
2022-12-26T01:42:52.111Z,2.59
2022-12-26T01:47:50.611Z,2.47
2022-12-26T01:52:48.841Z,2.44
2022-12-26T01:57:45.496Z,2.75
2022-12-26T02:02:53.169Z,2.64
2022-12-26T02:07:48.353Z,2.54
2022-12-26T02:12:42.249Z,2.55
2022-12-26T02:17:35.644Z,2.04
2022-12-26T02:23:08.114Z,2.30
2022-12-26T02:28:24.263Z,1.94
2022-12-26T02:33:40.739Z,2.30
2022-12-26T02:38:42.002Z,2.73
2022-12-26T02:43:42.407Z,2.73
2022-12-26T02:48:46.858Z,2.47
2022-12-26T02:54:06.845Z,2.52
2022-12-26T02:59:54.148Z,2.52
2022-12-26T03:04:59.344Z,2.44
2022-12-26T03:10:15.135Z,2.14
2022-12-26T03:15:12.206Z,1.80
2022-12-26T03:20:12.364Z,2.26
2022-12-26T03:25:26.877Z,2.12
2022-12-26T03:30:37.442Z,1.89
2022-12-26T03:35:35.122Z,0.88
2022-12-26T03:40:59.116Z,2.17
2022-12-26T03:46:20.417Z,2.13
2022-12-26T03:51:38.440Z,2.11
2022-12-26T03:56:54.462Z,1.75
2022-12-26T04:02:08.080Z,1.24
2022-12-26T04:07:28.891Z,1.68
2022-12-26T04:12:42.571Z,1.81
2022-12-26T04:18:03.874Z,2.01
2022-12-26T04:23:25.084Z,1.68
2022-12-26T04:28:35.811Z,1.80
2022-12-26T04:33:53.726Z,1.96
2022-12-26T04:39:09.853Z,1.97
2022-12-26T04:44:09.361Z,1.68
2022-12-26T04:49:23.612Z,1.58
2022-12-26T04:54:19.203Z,1.78
2022-12-26T04:59:12.364Z,1.87
2022-12-26T05:04:22.864Z,1.90
2022-12-26T05:09:36.271Z,2.00
2022-12-26T05:14:31.711Z,1.99
2022-12-26T05:19:49.985Z,1.68
2022-12-26T05:25:06.594Z,1.36
2022-12-26T05:30:00.083Z,1.84
2022-12-26T05:34:53.292Z,1.48
2022-12-26T05:39:47.831Z,1.80
2022-12-26T05:44:41.218Z,1.72
2022-12-26T05:49:34.517Z,1.69
2022-12-26T05:54:27.663Z,1.72
2022-12-26T05:59:22.318Z,1.71
2022-12-26T06:04:15.818Z,1.36
2022-12-26T06:09:09.079Z,1.71
2022-12-26T06:14:02.380Z,1.74
2022-12-26T06:18:57.280Z,1.51
2022-12-26T06:23:51.653Z,1.12
2022-12-26T06:28:46.841Z,1.72
2022-12-26T06:33:39.973Z,1.50
2022-12-26T06:38:35.085Z,1.14
2022-12-26T06:43:40.243Z,1.91
2022-12-26T06:48:39.478Z,0.90
2022-12-26T06:53:42.736Z,1.21
2022-12-26T06:58:37.798Z,1.91
2022-12-26T07:03:31.031Z,1.93
2022-12-26T07:08:24.192Z,1.98
2022-12-26T07:13:19.079Z,1.58
2022-12-26T07:18:12.322Z,2.06
2022-12-26T07:23:13.251Z,2.06
2022-12-26T07:28:06.502Z,2.15
2022-12-26T07:33:01.128Z,1.30
2022-12-26T07:37:54.310Z,2.49
2022-12-26T07:42:47.504Z,2.70
2022-12-26T07:47:40.781Z,2.76
2022-12-26T07:52:35.464Z,2.98
2022-12-26T07:57:48.076Z,2.98
2022-12-26T08:02:42.332Z,2.59
2022-12-26T08:07:39.176Z,3.32
2022-12-26T08:12:36.690Z,2.99
2022-12-26T08:17:31.632Z,3.41
2022-12-26T08:22:26.221Z,3.44
2022-12-26T08:27:26.824Z,3.95
2022-12-26T08:32:20.173Z,4.37
2022-12-26T08:37:13.561Z,4.53
2022-12-26T08:42:06.966Z,4.72
2022-12-26T08:47:03.929Z,4.32
2022-12-26T08:51:58.220Z,5.31
2022-12-26T08:56:51.706Z,5.58
2022-12-26T09:01:49.618Z,5.95
2022-12-26T09:06:44.399Z,5.77
2022-12-26T09:11:37.674Z,6.75
2022-12-26T09:16:39.347Z,7.44
2022-12-26T09:21:35.345Z,8.46
2022-12-26T09:26:30.545Z,9.28
2022-12-26T09:31:27.325Z,10.87
2022-12-26T09:36:23.311Z,11.47
2022-12-26T09:41:48.649Z,11.39
2022-12-26T09:46:50.118Z,12.30
2022-12-26T09:51:50.238Z,12.64
2022-12-26T09:57:04.006Z,12.96
2022-12-26T10:01:59.134Z,11.91
2022-12-26T10:07:01.837Z,11.84
2022-12-26T10:12:10.914Z,12.83
2022-12-26T10:17:11.743Z,11.89
2022-12-26T10:22:15.603Z,13.08
2022-12-26T10:27:16.754Z,12.93
2022-12-26T10:32:16.380Z,12.87
2022-12-26T10:37:17.005Z,13.01
2022-12-26T10:42:24.775Z,14.14
2022-12-26T10:47:26.066Z,14.35
2022-12-26T10:52:23.000Z,14.23
2022-12-26T10:57:19.587Z,13.65
2022-12-26T11:02:17.484Z,14.06
2022-12-26T11:07:13.249Z,14.37
2022-12-26T11:12:07.523Z,13.84
2022-12-26T11:23:56.472Z,13.60
2022-12-26T11:35:58.976Z,14.69
2022-12-26T11:41:58.744Z,13.64
2022-12-26T11:47:10.152Z,14.11
2022-12-26T11:52:38.954Z,12.91
2022-12-26T11:57:56.900Z,11.85
2022-12-26T12:02:58.462Z,10.93
2022-12-26T12:08:30.311Z,11.24
2022-12-26T12:13:39.553Z,11.21
2022-12-26T12:18:45.061Z,11.04
2022-12-26T12:24:14.635Z,10.47
2022-12-26T12:29:28.617Z,11.00
2022-12-26T12:34:36.259Z,10.93
2022-12-26T12:39:41.369Z,10.43
2022-12-26T12:44:56.665Z,10.85
2022-12-26T12:50:01.148Z,10.75
2022-12-26T12:55:21.600Z,9.60
2022-12-26T13:00:21.756Z,10.69
2022-12-26T13:05:23.901Z,10.42
2022-12-26T13:10:24.275Z,10.49
2022-12-26T13:15:28.277Z,9.45
2022-12-26T13:20:28.515Z,10.50
2022-12-26T13:25:26.157Z,10.06
2022-12-26T13:30:20.069Z,10.82
2022-12-26T13:35:48.643Z,10.63
2022-12-26T13:40:57.549Z,10.30
2022-12-26T13:45:56.694Z,10.47
2022-12-26T13:50:55.699Z,10.24
2022-12-26T13:55:59.775Z,10.57
2022-12-26T14:01:07.044Z,10.58
2022-12-26T14:06:40.474Z,9.69
2022-12-26T14:11:51.674Z,10.10
2022-12-26T14:16:52.072Z,10.38
2022-12-26T14:21:58.467Z,10.32
2022-12-26T14:27:01.197Z,10.27
2022-12-26T14:32:10.523Z,10.24
2022-12-26T14:37:14.383Z,9.22
2022-12-26T14:42:39.572Z,9.37
2022-12-26T14:47:42.623Z,9.67
2022-12-26T14:52:44.687Z,9.54
2022-12-26T14:57:50.218Z,9.10
2022-12-26T15:02:54.141Z,9.16
2022-12-26T15:08:14.547Z,9.12
2022-12-26T15:13:44.524Z,8.84
2022-12-26T15:19:16.628Z,8.71
2022-12-26T15:30:22.982Z,8.41
2022-12-26T15:35:25.562Z,8.22
2022-12-26T15:40:24.277Z,7.63
2022-12-26T15:45:36.404Z,7.83
2022-12-26T15:50:35.286Z,8.11
2022-12-26T15:55:43.891Z,8.06
2022-12-26T16:00:41.185Z,7.55
2022-12-26T16:05:42.811Z,7.29
2022-12-26T16:10:37.241Z,7.37
2022-12-26T16:15:33.298Z,6.95
2022-12-26T16:20:50.770Z,6.17
2022-12-26T16:25:51.194Z,7.17
2022-12-26T16:30:44.542Z,6.90
2022-12-26T16:35:41.865Z,6.55
2022-12-26T16:40:42.718Z,7.01
2022-12-26T16:45:39.579Z,6.72
2022-12-26T16:50:33.720Z,6.82
2022-12-26T16:55:37.432Z,5.89
2022-12-26T17:00:32.920Z,6.19
2022-12-26T17:05:30.234Z,6.16
2022-12-26T17:10:27.169Z,6.49
2022-12-26T17:15:25.519Z,5.83
2022-12-26T17:20:37.613Z,6.42
2022-12-26T17:25:44.421Z,5.80
2022-12-26T17:30:45.908Z,6.38
2022-12-26T17:36:25.279Z,5.87
2022-12-26T17:40:55.418Z,6.28
2022-12-26T17:45:52.577Z,6.42
2022-12-26T17:50:48.417Z,6.29
2022-12-26T17:55:43.056Z,6.14
2022-12-26T18:00:36.365Z,5.79
2022-12-26T18:05:31.325Z,5.54
2022-12-26T18:10:26.642Z,5.03
2022-12-26T18:15:21.109Z,4.81
2022-12-26T18:20:19.985Z,5.47
2022-12-26T18:25:17.627Z,5.48
2022-12-26T18:30:17.737Z,5.40
2022-12-26T18:35:11.386Z,5.36
2022-12-26T18:40:05.439Z,4.92
2022-12-26T18:45:00.232Z,5.22
2022-12-26T18:49:53.534Z,4.23
2022-12-26T18:54:46.915Z,4.84
2022-12-26T18:59:40.679Z,4.56
2022-12-26T19:04:35.284Z,5.01
2022-12-26T19:09:28.560Z,4.41
2022-12-26T19:14:23.626Z,4.81
2022-12-26T19:19:17.008Z,3.68
2022-12-26T19:24:16.151Z,3.81
2022-12-26T19:29:10.931Z,4.02
2022-12-26T19:34:04.224Z,4.49
2022-12-26T19:38:57.720Z,3.16
2022-12-26T19:43:58.006Z,3.69
2022-12-26T19:48:51.279Z,3.88
2022-12-26T19:53:45.481Z,3.13
2022-12-26T19:58:38.967Z,3.31
2022-12-26T20:03:33.648Z,4.26
2022-12-26T20:08:27.034Z,3.82
2022-12-26T20:13:20.539Z,4.02
2022-12-26T20:18:16.456Z,3.41
2022-12-26T20:23:12.706Z,3.72
2022-12-26T20:28:06.230Z,3.91
2022-12-26T20:32:59.767Z,4.17
2022-12-26T20:37:56.207Z,3.39
2022-12-26T20:42:53.410Z,4.17
2022-12-26T20:47:46.865Z,3.92
2022-12-26T20:52:40.140Z,3.51
2022-12-26T20:57:33.531Z,3.96
2022-12-26T21:02:28.402Z,4.40
2022-12-26T21:07:21.768Z,3.74
2022-12-26T21:12:15.334Z,4.04
2022-12-26T21:17:08.666Z,3.95
2022-12-26T21:22:03.683Z,4.10
2022-12-26T21:26:57.323Z,3.31
2022-12-26T21:31:53.867Z,3.60
2022-12-26T21:37:08.403Z,3.78
2022-12-26T21:42:07.093Z,3.75
2022-12-26T21:47:01.630Z,3.89
2022-12-26T21:51:55.061Z,3.50
2022-12-26T21:56:51.136Z,3.60
2022-12-26T22:01:47.655Z,2.62
2022-12-26T22:06:42.220Z,2.59
2022-12-26T22:11:53.067Z,2.42
2022-12-26T22:16:47.878Z,2.93
2022-12-26T22:21:41.099Z,2.83
2022-12-26T22:26:37.137Z,3.11
2022-12-26T22:31:33.135Z,2.37
2022-12-26T22:36:29.179Z,3.18
2022-12-26T22:41:22.856Z,2.39
2022-12-26T22:46:16.623Z,2.73
2022-12-26T22:51:10.819Z,2.88
2022-12-26T22:56:07.788Z,2.48
2022-12-26T23:01:01.923Z,3.00
2022-12-26T23:05:56.172Z,2.87
2022-12-26T23:10:50.813Z,2.86
2022-12-26T23:15:52.448Z,2.84
2022-12-26T23:21:05.811Z,2.60
2022-12-26T23:26:01.305Z,2.96
2022-12-26T23:30:57.168Z,2.87
2022-12-26T23:35:50.600Z,2.99
2022-12-26T23:40:43.851Z,2.54
2022-12-26T23:45:37.009Z,2.65
2022-12-26T23:50:32.651Z,2.71
2022-12-26T23:55:25.980Z,2.83
